sensor_id;sensor_type;location;lat;lon;timestamp;P1;durP1;ratioP1;P2;durP2;ratioP2
38312;SDS011;24114;52.260;6.714;2023-04-03T00:00:19;2.10;;;0.70;;
38312;SDS011;24114;52.260;6.714;2023-04-03T00:02:48;2.35;;;0.60;;
38312;SDS011;24114;52.260;6.714;2023-04-03T00:05:16;3.08;;;0.70;;
38312;SDS011;24114;52.260;6.714;2023-04-03T00:07:44;3.10;;;0.50;;
38312;SDS011;24114;52.260;6.714;2023-04-03T00:10:12;1.77;;;0.50;;
38312;SDS011;24114;52.260;6.714;2023-04-03T00:12:41;3.20;;;0.50;;
38312;SDS011;24114;52.260;6.714;2023-04-03T00:15:09;2.40;;;0.85;;
38312;SDS011;24114;52.260;6.714;2023-04-03T00:17:37;3.45;;;0.90;;
38312;SDS011;24114;52.260;6.714;2023-04-03T00:20:06;1.83;;;0.50;;
38312;SDS011;24114;52.260;6.714;2023-04-03T00:22:35;2.75;;;0.82;;
38312;SDS011;24114;52.260;6.714;2023-04-03T00:25:03;1.85;;;0.60;;
38312;SDS011;24114;52.260;6.714;2023-04-03T00:27:31;2.83;;;0.90;;
38312;SDS011;24114;52.260;6.714;2023-04-03T00:29:59;2.88;;;0.80;;
38312;SDS011;24114;52.260;6.714;2023-04-03T00:32:26;2.13;;;0.88;;
38312;SDS011;24114;52.260;6.714;2023-04-03T00:34:54;2.70;;;0.85;;
38312;SDS011;24114;52.260;6.714;2023-04-03T00:37:23;1.98;;;0.77;;
38312;SDS011;24114;52.260;6.714;2023-04-03T00:39:51;4.22;;;0.98;;
38312;SDS011;24114;52.260;6.714;2023-04-03T00:42:19;3.17;;;1.10;;
38312;SDS011;24114;52.260;6.714;2023-04-03T00:47:54;2.33;;;0.70;;
38312;SDS011;24114;52.260;6.714;2023-04-03T00:50:22;2.47;;;0.83;;
38312;SDS011;24114;52.260;6.714;2023-04-03T00:52:51;2.63;;;0.75;;
38312;SDS011;24114;52.260;6.714;2023-04-03T00:55:20;2.65;;;1.05;;
38312;SDS011;24114;52.260;6.714;2023-04-03T00:57:48;2.50;;;0.80;;
38312;SDS011;24114;52.260;6.714;2023-04-03T01:00:17;3.17;;;0.90;;
38312;SDS011;24114;52.260;6.714;2023-04-03T01:02:47;4.10;;;1.33;;
38312;SDS011;24114;52.260;6.714;2023-04-03T01:05:14;4.82;;;0.80;;
38312;SDS011;24114;52.260;6.714;2023-04-03T01:07:43;4.17;;;1.10;;
38312;SDS011;24114;52.260;6.714;2023-04-03T01:10:14;2.47;;;0.88;;
38312;SDS011;24114;52.260;6.714;2023-04-03T01:12:43;3.40;;;0.90;;
38312;SDS011;24114;52.260;6.714;2023-04-03T01:15:13;2.72;;;0.88;;
38312;SDS011;24114;52.260;6.714;2023-04-03T01:17:43;2.10;;;0.82;;
38312;SDS011;24114;52.260;6.714;2023-04-03T01:23:39;4.40;;;1.35;;
38312;SDS011;24114;52.260;6.714;2023-04-03T01:26:28;2.90;;;0.90;;
38312;SDS011;24114;52.260;6.714;2023-04-03T01:28:58;2.57;;;0.77;;
38312;SDS011;24114;52.260;6.714;2023-04-03T01:31:27;3.53;;;1.00;;
38312;SDS011;24114;52.260;6.714;2023-04-03T01:33:57;4.18;;;0.85;;
38312;SDS011;24114;52.260;6.714;2023-04-03T01:36:26;2.70;;;0.93;;
38312;SDS011;24114;52.260;6.714;2023-04-03T01:38:56;2.42;;;1.00;;
38312;SDS011;24114;52.260;6.714;2023-04-03T01:41:26;3.10;;;1.05;;
38312;SDS011;24114;52.260;6.714;2023-04-03T01:43:55;4.82;;;1.40;;
38312;SDS011;24114;52.260;6.714;2023-04-03T01:46:22;4.13;;;1.00;;
38312;SDS011;24114;52.260;6.714;2023-04-03T01:48:50;3.87;;;1.17;;
38312;SDS011;24114;52.260;6.714;2023-04-03T01:51:19;4.05;;;1.10;;
38312;SDS011;24114;52.260;6.714;2023-04-03T01:53:47;3.72;;;0.80;;
38312;SDS011;24114;52.260;6.714;2023-04-03T01:56:15;3.85;;;1.20;;
38312;SDS011;24114;52.260;6.714;2023-04-03T01:58:42;2.30;;;0.63;;
38312;SDS011;24114;52.260;6.714;2023-04-03T02:01:10;3.83;;;1.05;;
38312;SDS011;24114;52.260;6.714;2023-04-03T02:03:38;3.10;;;0.80;;
38312;SDS011;24114;52.260;6.714;2023-04-03T02:06:06;5.18;;;1.20;;
38312;SDS011;24114;52.260;6.714;2023-04-03T02:08:35;4.00;;;1.25;;
38312;SDS011;24114;52.260;6.714;2023-04-03T02:11:03;2.97;;;0.90;;
38312;SDS011;24114;52.260;6.714;2023-04-03T02:13:31;4.85;;;1.30;;
38312;SDS011;24114;52.260;6.714;2023-04-03T02:15:58;5.27;;;1.00;;
38312;SDS011;24114;52.260;6.714;2023-04-03T02:18:26;3.43;;;0.97;;
38312;SDS011;24114;52.260;6.714;2023-04-03T02:20:54;3.95;;;0.90;;
38312;SDS011;24114;52.260;6.714;2023-04-03T02:23:22;3.30;;;0.70;;
38312;SDS011;24114;52.260;6.714;2023-04-03T02:25:51;3.10;;;0.65;;
38312;SDS011;24114;52.260;6.714;2023-04-03T02:28:19;3.60;;;0.80;;
38312;SDS011;24114;52.260;6.714;2023-04-03T02:30:46;6.13;;;1.10;;
38312;SDS011;24114;52.260;6.714;2023-04-03T02:33:14;3.88;;;0.85;;
38312;SDS011;24114;52.260;6.714;2023-04-03T02:35:42;3.80;;;1.05;;
38312;SDS011;24114;52.260;6.714;2023-04-03T02:38:10;3.45;;;0.98;;
38312;SDS011;24114;52.260;6.714;2023-04-03T02:40:37;4.15;;;0.95;;
38312;SDS011;24114;52.260;6.714;2023-04-03T02:43:06;3.25;;;0.80;;
38312;SDS011;24114;52.260;6.714;2023-04-03T02:45:34;2.95;;;0.93;;
38312;SDS011;24114;52.260;6.714;2023-04-03T02:48:02;3.77;;;0.90;;
38312;SDS011;24114;52.260;6.714;2023-04-03T02:50:30;2.63;;;0.77;;
38312;SDS011;24114;52.260;6.714;2023-04-03T02:52:58;2.72;;;0.80;;
38312;SDS011;24114;52.260;6.714;2023-04-03T02:55:26;3.55;;;1.00;;
38312;SDS011;24114;52.260;6.714;2023-04-03T02:57:53;3.50;;;1.30;;
38312;SDS011;24114;52.260;6.714;2023-04-03T03:00:23;4.78;;;1.17;;
38312;SDS011;24114;52.260;6.714;2023-04-03T03:02:50;2.38;;;0.93;;
38312;SDS011;24114;52.260;6.714;2023-04-03T03:05:18;3.97;;;0.80;;
38312;SDS011;24114;52.260;6.714;2023-04-03T03:07:46;3.95;;;1.15;;
38312;SDS011;24114;52.260;6.714;2023-04-03T03:10:14;3.53;;;0.63;;
38312;SDS011;24114;52.260;6.714;2023-04-03T03:12:41;2.60;;;1.10;;
38312;SDS011;24114;52.260;6.714;2023-04-03T03:15:10;4.00;;;0.98;;
38312;SDS011;24114;52.260;6.714;2023-04-03T03:17:39;3.40;;;0.85;;
38312;SDS011;24114;52.260;6.714;2023-04-03T03:20:07;3.28;;;0.90;;
38312;SDS011;24114;52.260;6.714;2023-04-03T03:22:36;5.07;;;1.30;;
38312;SDS011;24114;52.260;6.714;2023-04-03T03:25:04;2.13;;;0.80;;
38312;SDS011;24114;52.260;6.714;2023-04-03T03:27:32;3.20;;;0.93;;
38312;SDS011;24114;52.260;6.714;2023-04-03T03:30:00;3.67;;;1.05;;
38312;SDS011;24114;52.260;6.714;2023-04-03T03:32:27;3.03;;;0.90;;
38312;SDS011;24114;52.260;6.714;2023-04-03T03:34:57;4.60;;;0.83;;
38312;SDS011;24114;52.260;6.714;2023-04-03T03:37:24;4.63;;;1.30;;
38312;SDS011;24114;52.260;6.714;2023-04-03T03:39:53;2.80;;;0.90;;
38312;SDS011;24114;52.260;6.714;2023-04-03T03:42:20;3.33;;;0.80;;
38312;SDS011;24114;52.260;6.714;2023-04-03T03:44:48;3.40;;;1.08;;
38312;SDS011;24114;52.260;6.714;2023-04-03T03:47:16;3.20;;;0.80;;
38312;SDS011;24114;52.260;6.714;2023-04-03T03:49:44;3.00;;;1.00;;
38312;SDS011;24114;52.260;6.714;2023-04-03T03:52:13;2.90;;;1.10;;
38312;SDS011;24114;52.260;6.714;2023-04-03T03:54:40;2.47;;;0.82;;
38312;SDS011;24114;52.260;6.714;2023-04-03T03:57:08;3.72;;;1.10;;
38312;SDS011;24114;52.260;6.714;2023-04-03T03:59:37;3.83;;;1.17;;
38312;SDS011;24114;52.260;6.714;2023-04-03T04:02:06;4.88;;;1.42;;
38312;SDS011;24114;52.260;6.714;2023-04-03T04:04:34;4.28;;;1.25;;
38312;SDS011;24114;52.260;6.714;2023-04-03T04:07:02;3.78;;;1.20;;
38312;SDS011;24114;52.260;6.714;2023-04-03T04:09:31;3.45;;;0.90;;
38312;SDS011;24114;52.260;6.714;2023-04-03T04:11:59;4.13;;;1.17;;
38312;SDS011;24114;52.260;6.714;2023-04-03T04:14:27;2.72;;;0.93;;
38312;SDS011;24114;52.260;6.714;2023-04-03T04:16:54;6.15;;;1.20;;
38312;SDS011;24114;52.260;6.714;2023-04-03T04:19:22;2.97;;;1.10;;
38312;SDS011;24114;52.260;6.714;2023-04-03T04:21:50;3.40;;;1.13;;
38312;SDS011;24114;52.260;6.714;2023-04-03T04:24:18;1.92;;;0.82;;
38312;SDS011;24114;52.260;6.714;2023-04-03T04:26:47;3.70;;;1.30;;
38312;SDS011;24114;52.260;6.714;2023-04-03T04:29:15;2.53;;;1.00;;
38312;SDS011;24114;52.260;6.714;2023-04-03T04:31:42;2.72;;;0.90;;
38312;SDS011;24114;52.260;6.714;2023-04-03T04:34:10;3.27;;;0.90;;
38312;SDS011;24114;52.260;6.714;2023-04-03T04:36:39;3.70;;;1.27;;
38312;SDS011;24114;52.260;6.714;2023-04-03T04:39:07;3.75;;;1.08;;
38312;SDS011;24114;52.260;6.714;2023-04-03T04:41:35;2.80;;;0.82;;
38312;SDS011;24114;52.260;6.714;2023-04-03T04:44:04;4.40;;;1.23;;
38312;SDS011;24114;52.260;6.714;2023-04-03T04:46:32;3.75;;;1.23;;
38312;SDS011;24114;52.260;6.714;2023-04-03T04:49:00;3.90;;;1.10;;
38312;SDS011;24114;52.260;6.714;2023-04-03T04:51:27;3.57;;;1.10;;
38312;SDS011;24114;52.260;6.714;2023-04-03T04:54:06;4.38;;;1.20;;
38312;SDS011;24114;52.260;6.714;2023-04-03T04:56:34;3.58;;;1.00;;
38312;SDS011;24114;52.260;6.714;2023-04-03T04:59:02;4.22;;;1.30;;
38312;SDS011;24114;52.260;6.714;2023-04-03T05:01:31;5.20;;;1.50;;
38312;SDS011;24114;52.260;6.714;2023-04-03T05:03:58;4.70;;;1.20;;
38312;SDS011;24114;52.260;6.714;2023-04-03T05:06:26;4.60;;;1.20;;
38312;SDS011;24114;52.260;6.714;2023-04-03T05:08:56;2.88;;;0.93;;
38312;SDS011;24114;52.260;6.714;2023-04-03T05:11:24;4.20;;;1.20;;
38312;SDS011;24114;52.260;6.714;2023-04-03T05:13:52;3.92;;;1.30;;
38312;SDS011;24114;52.260;6.714;2023-04-03T05:16:21;5.60;;;1.60;;
38312;SDS011;24114;52.260;6.714;2023-04-03T05:18:49;3.60;;;1.30;;
38312;SDS011;24114;52.260;6.714;2023-04-03T05:21:16;4.15;;;1.10;;
38312;SDS011;24114;52.260;6.714;2023-04-03T05:23:45;2.78;;;1.08;;
38312;SDS011;24114;52.260;6.714;2023-04-03T05:26:13;4.03;;;1.10;;
38312;SDS011;24114;52.260;6.714;2023-04-03T05:28:40;4.25;;;1.30;;
38312;SDS011;24114;52.260;6.714;2023-04-03T05:31:08;4.90;;;1.23;;
38312;SDS011;24114;52.260;6.714;2023-04-03T05:33:37;3.97;;;1.15;;
38312;SDS011;24114;52.260;6.714;2023-04-03T05:36:05;3.30;;;0.75;;
38312;SDS011;24114;52.260;6.714;2023-04-03T05:38:34;3.33;;;1.08;;
38312;SDS011;24114;52.260;6.714;2023-04-03T05:41:02;4.18;;;1.30;;
38312;SDS011;24114;52.260;6.714;2023-04-03T05:43:29;4.93;;;1.40;;
38312;SDS011;24114;52.260;6.714;2023-04-03T05:45:57;4.60;;;1.05;;
38312;SDS011;24114;52.260;6.714;2023-04-03T05:48:25;3.25;;;1.20;;
38312;SDS011;24114;52.260;6.714;2023-04-03T05:50:54;3.20;;;1.00;;
38312;SDS011;24114;52.260;6.714;2023-04-03T05:53:23;5.22;;;1.00;;
38312;SDS011;24114;52.260;6.714;2023-04-03T05:55:53;4.90;;;1.10;;
38312;SDS011;24114;52.260;6.714;2023-04-03T05:58:21;3.77;;;0.87;;
38312;SDS011;24114;52.260;6.714;2023-04-03T06:00:48;4.15;;;1.10;;
38312;SDS011;24114;52.260;6.714;2023-04-03T06:03:16;2.92;;;0.90;;
38312;SDS011;24114;52.260;6.714;2023-04-03T06:05:44;5.80;;;1.35;;
38312;SDS011;24114;52.260;6.714;2023-04-03T06:08:13;3.53;;;1.05;;
38312;SDS011;24114;52.260;6.714;2023-04-03T06:10:41;5.15;;;1.42;;
38312;SDS011;24114;52.260;6.714;2023-04-03T06:13:09;3.30;;;1.00;;
38312;SDS011;24114;52.260;6.714;2023-04-03T06:15:37;5.40;;;1.35;;
38312;SDS011;24114;52.260;6.714;2023-04-03T06:18:05;4.78;;;1.20;;
38312;SDS011;24114;52.260;6.714;2023-04-03T06:20:34;3.50;;;1.00;;
38312;SDS011;24114;52.260;6.714;2023-04-03T06:23:02;3.33;;;1.25;;
38312;SDS011;24114;52.260;6.714;2023-04-03T06:25:35;5.30;;;1.35;;
38312;SDS011;24114;52.260;6.714;2023-04-03T06:28:02;2.92;;;0.98;;
38312;SDS011;24114;52.260;6.714;2023-04-03T06:30:30;3.72;;;1.15;;
38312;SDS011;24114;52.260;6.714;2023-04-03T06:32:58;3.55;;;1.10;;
38312;SDS011;24114;52.260;6.714;2023-04-03T06:35:26;3.03;;;1.10;;
38312;SDS011;24114;52.260;6.714;2023-04-03T06:37:54;5.63;;;1.48;;
38312;SDS011;24114;52.260;6.714;2023-04-03T06:40:23;3.50;;;1.23;;
38312;SDS011;24114;52.260;6.714;2023-04-03T06:42:53;4.95;;;1.40;;
38312;SDS011;24114;52.260;6.714;2023-04-03T06:45:21;5.00;;;1.20;;
38312;SDS011;24114;52.260;6.714;2023-04-03T06:47:50;2.97;;;0.63;;
38312;SDS011;24114;52.260;6.714;2023-04-03T06:50:18;5.38;;;0.90;;
38312;SDS011;24114;52.260;6.714;2023-04-03T06:52:46;3.40;;;0.95;;
38312;SDS011;24114;52.260;6.714;2023-04-03T06:55:14;3.23;;;1.10;;
38312;SDS011;24114;52.260;6.714;2023-04-03T06:57:42;3.35;;;0.57;;
38312;SDS011;24114;52.260;6.714;2023-04-03T07:00:12;2.90;;;0.80;;
38312;SDS011;24114;52.260;6.714;2023-04-03T07:02:41;4.00;;;1.08;;
38312;SDS011;24114;52.260;6.714;2023-04-03T07:05:08;4.70;;;0.82;;
38312;SDS011;24114;52.260;6.714;2023-04-03T07:07:36;4.75;;;1.27;;
38312;SDS011;24114;52.260;6.714;2023-04-03T07:10:05;3.08;;;0.80;;
38312;SDS011;24114;52.260;6.714;2023-04-03T07:12:34;3.97;;;0.70;;
38312;SDS011;24114;52.260;6.714;2023-04-03T07:15:01;2.33;;;0.70;;
38312;SDS011;24114;52.260;6.714;2023-04-03T07:17:31;2.43;;;0.70;;
38312;SDS011;24114;52.260;6.714;2023-04-03T07:19:59;2.60;;;1.00;;
38312;SDS011;24114;52.260;6.714;2023-04-03T07:22:27;3.13;;;0.77;;
38312;SDS011;24114;52.260;6.714;2023-04-03T07:24:56;3.65;;;0.60;;
38312;SDS011;24114;52.260;6.714;2023-04-03T07:27:25;2.30;;;0.60;;
38312;SDS011;24114;52.260;6.714;2023-04-03T07:29:53;3.87;;;0.80;;
38312;SDS011;24114;52.260;6.714;2023-04-03T07:32:22;2.25;;;0.50;;
38312;SDS011;24114;52.260;6.714;2023-04-03T07:34:51;2.33;;;0.55;;
38312;SDS011;24114;52.260;6.714;2023-04-03T07:37:19;1.73;;;0.45;;
38312;SDS011;24114;52.260;6.714;2023-04-03T07:39:47;2.85;;;0.70;;
38312;SDS011;24114;52.260;6.714;2023-04-03T07:42:14;3.90;;;0.70;;
38312;SDS011;24114;52.260;6.714;2023-04-03T07:44:42;3.13;;;0.50;;
38312;SDS011;24114;52.260;6.714;2023-04-03T07:47:10;2.20;;;0.50;;
38312;SDS011;24114;52.260;6.714;2023-04-03T07:49:39;5.78;;;0.50;;
38312;SDS011;24114;52.260;6.714;2023-04-03T07:52:09;1.55;;;0.45;;
38312;SDS011;24114;52.260;6.714;2023-04-03T07:54:36;1.70;;;0.30;;
38312;SDS011;24114;52.260;6.714;2023-04-03T07:57:04;1.65;;;0.38;;
38312;SDS011;24114;52.260;6.714;2023-04-03T07:59:32;1.60;;;0.30;;
38312;SDS011;24114;52.260;6.714;2023-04-03T08:02:00;1.85;;;0.52;;
38312;SDS011;24114;52.260;6.714;2023-04-03T08:04:30;1.77;;;0.30;;
38312;SDS011;24114;52.260;6.714;2023-04-03T08:06:58;1.20;;;0.30;;
38312;SDS011;24114;52.260;6.714;2023-04-03T08:09:28;1.70;;;0.20;;
38312;SDS011;24114;52.260;6.714;2023-04-03T08:11:55;2.10;;;0.35;;
38312;SDS011;24114;52.260;6.714;2023-04-03T08:14:23;2.22;;;0.22;;
38312;SDS011;24114;52.260;6.714;2023-04-03T08:16:51;2.20;;;0.30;;
38312;SDS011;24114;52.260;6.714;2023-04-03T08:19:19;1.40;;;0.30;;
38312;SDS011;24114;52.260;6.714;2023-04-03T08:21:52;1.88;;;0.40;;
38312;SDS011;24114;52.260;6.714;2023-04-03T08:24:20;2.25;;;0.40;;
38312;SDS011;24114;52.260;6.714;2023-04-03T08:26:49;2.15;;;0.50;;
38312;SDS011;24114;52.260;6.714;2023-04-03T08:29:17;2.17;;;0.40;;
38312;SDS011;24114;52.260;6.714;2023-04-03T08:31:45;2.20;;;0.20;;
38312;SDS011;24114;52.260;6.714;2023-04-03T08:34:13;1.88;;;0.30;;
38312;SDS011;24114;52.260;6.714;2023-04-03T08:36:41;1.05;;;0.17;;
38312;SDS011;24114;52.260;6.714;2023-04-03T08:39:10;1.40;;;0.30;;
38312;SDS011;24114;52.260;6.714;2023-04-03T08:41:38;0.95;;;0.20;;
38312;SDS011;24114;52.260;6.714;2023-04-03T08:44:17;1.85;;;0.30;;
38312;SDS011;24114;52.260;6.714;2023-04-03T08:46:53;1.90;;;0.30;;
38312;SDS011;24114;52.260;6.714;2023-04-03T08:49:35;1.40;;;0.20;;
38312;SDS011;24114;52.260;6.714;2023-04-03T08:52:08;1.33;;;0.20;;
38312;SDS011;24114;52.260;6.714;2023-04-03T08:54:40;1.15;;;0.10;;
38312;SDS011;24114;52.260;6.714;2023-04-03T08:57:17;2.10;;;0.30;;
38312;SDS011;24114;52.260;6.714;2023-04-03T08:59:48;1.80;;;0.20;;
38312;SDS011;24114;52.260;6.714;2023-04-03T09:02:21;1.05;;;0.20;;
38312;SDS011;24114;52.260;6.714;2023-04-03T09:04:52;0.80;;;0.20;;
38312;SDS011;24114;52.260;6.714;2023-04-03T09:07:22;1.65;;;0.20;;
38312;SDS011;24114;52.260;6.714;2023-04-03T09:09:53;0.75;;;0.10;;
38312;SDS011;24114;52.260;6.714;2023-04-03T09:12:23;0.70;;;0.10;;
38312;SDS011;24114;52.260;6.714;2023-04-03T09:14:57;0.90;;;0.20;;
38312;SDS011;24114;52.260;6.714;2023-04-03T09:17:35;1.10;;;0.10;;
38312;SDS011;24114;52.260;6.714;2023-04-03T09:20:11;1.05;;;0.10;;
38312;SDS011;24114;52.260;6.714;2023-04-03T09:22:46;1.45;;;0.10;;
38312;SDS011;24114;52.260;6.714;2023-04-03T09:25:18;1.00;;;0.10;;
38312;SDS011;24114;52.260;6.714;2023-04-03T09:27:48;1.42;;;0.10;;
38312;SDS011;24114;52.260;6.714;2023-04-03T09:30:18;1.38;;;0.20;;
38312;SDS011;24114;52.260;6.714;2023-04-03T09:32:49;1.85;;;0.20;;
38312;SDS011;24114;52.260;6.714;2023-04-03T09:35:19;1.77;;;0.20;;
38312;SDS011;24114;52.260;6.714;2023-04-03T09:38:14;1.87;;;0.30;;
38312;SDS011;24114;52.260;6.714;2023-04-03T09:40:44;1.23;;;0.20;;
38312;SDS011;24114;52.260;6.714;2023-04-03T09:43:23;1.73;;;0.30;;
38312;SDS011;24114;52.260;6.714;2023-04-03T09:45:55;0.70;;;0.13;;
38312;SDS011;24114;52.260;6.714;2023-04-03T09:48:24;1.10;;;0.10;;
38312;SDS011;24114;52.260;6.714;2023-04-03T09:50:55;1.55;;;0.20;;
38312;SDS011;24114;52.260;6.714;2023-04-03T09:53:29;1.45;;;0.17;;
38312;SDS011;24114;52.260;6.714;2023-04-03T09:55:58;1.00;;;0.10;;
38312;SDS011;24114;52.260;6.714;2023-04-03T09:58:27;1.05;;;0.20;;
38312;SDS011;24114;52.260;6.714;2023-04-03T10:01:27;1.10;;;0.10;;
38312;SDS011;24114;52.260;6.714;2023-04-03T10:04:07;1.25;;;0.10;;
38312;SDS011;24114;52.260;6.714;2023-04-03T10:06:37;1.15;;;0.10;;
38312;SDS011;24114;52.260;6.714;2023-04-03T10:09:13;2.15;;;0.10;;
38312;SDS011;24114;52.260;6.714;2023-04-03T10:11:57;1.20;;;0.10;;
38312;SDS011;24114;52.260;6.714;2023-04-03T10:14:27;2.58;;;0.10;;
38312;SDS011;24114;52.260;6.714;2023-04-03T10:16:59;1.10;;;0.10;;
38312;SDS011;24114;52.260;6.714;2023-04-03T10:19:34;1.33;;;0.08;;
38312;SDS011;24114;52.260;6.714;2023-04-03T10:22:04;0.80;;;0.10;;
38312;SDS011;24114;52.260;6.714;2023-04-03T10:24:43;0.77;;;0.10;;
38312;SDS011;24114;52.260;6.714;2023-04-03T10:27:16;0.70;;;0.08;;
38312;SDS011;24114;52.260;6.714;2023-04-03T10:29:47;1.50;;;0.10;;
38312;SDS011;24114;52.260;6.714;2023-04-03T10:32:24;1.60;;;0.10;;
38312;SDS011;24114;52.260;6.714;2023-04-03T10:35:00;1.40;;;0.10;;
38312;SDS011;24114;52.260;6.714;2023-04-03T10:37:34;0.75;;;0.10;;
38312;SDS011;24114;52.260;6.714;2023-04-03T10:40:18;1.00;;;0.10;;
38312;SDS011;24114;52.260;6.714;2023-04-03T10:42:53;1.42;;;0.13;;
38312;SDS011;24114;52.260;6.714;2023-04-03T10:45:26;1.70;;;0.20;;
38312;SDS011;24114;52.260;6.714;2023-04-03T10:47:59;4.10;;;0.38;;
38312;SDS011;24114;52.260;6.714;2023-04-03T10:50:33;2.50;;;0.20;;
38312;SDS011;24114;52.260;6.714;2023-04-03T10:53:08;1.27;;;0.15;;
38312;SDS011;24114;52.260;6.714;2023-04-03T10:55:43;1.10;;;0.20;;
38312;SDS011;24114;52.260;6.714;2023-04-03T10:58:17;1.85;;;0.30;;
38312;SDS011;24114;52.260;6.714;2023-04-03T11:00:48;2.50;;;0.10;;
38312;SDS011;24114;52.260;6.714;2023-04-03T11:03:25;1.13;;;0.20;;
38312;SDS011;24114;52.260;6.714;2023-04-03T11:05:54;1.90;;;0.20;;
38312;SDS011;24114;52.260;6.714;2023-04-03T11:08:24;1.40;;;0.20;;
38312;SDS011;24114;52.260;6.714;2023-04-03T11:10:55;1.30;;;0.10;;
38312;SDS011;24114;52.260;6.714;2023-04-03T11:13:26;1.02;;;0.10;;
38312;SDS011;24114;52.260;6.714;2023-04-03T11:15:57;1.35;;;0.22;;
38312;SDS011;24114;52.260;6.714;2023-04-03T11:18:27;1.45;;;0.13;;
38312;SDS011;24114;52.260;6.714;2023-04-03T11:20:59;1.27;;;0.10;;
38312;SDS011;24114;52.260;6.714;2023-04-03T11:23:30;0.82;;;0.10;;
38312;SDS011;24114;52.260;6.714;2023-04-03T11:26:14;1.50;;;0.20;;
38312;SDS011;24114;52.260;6.714;2023-04-03T11:28:43;1.40;;;0.20;;
38312;SDS011;24114;52.260;6.714;2023-04-03T11:31:15;1.27;;;0.17;;
38312;SDS011;24114;52.260;6.714;2023-04-03T11:33:58;1.38;;;0.20;;
38312;SDS011;24114;52.260;6.714;2023-04-03T11:36:31;1.83;;;0.20;;
38312;SDS011;24114;52.260;6.714;2023-04-03T11:39:07;1.70;;;0.20;;
38312;SDS011;24114;52.260;6.714;2023-04-03T11:41:41;3.00;;;0.17;;
38312;SDS011;24114;52.260;6.714;2023-04-03T11:44:25;1.40;;;0.20;;
38312;SDS011;24114;52.260;6.714;2023-04-03T11:47:00;1.33;;;0.20;;
38312;SDS011;24114;52.260;6.714;2023-04-03T11:58:29;1.00;;;0.30;;
38312;SDS011;24114;52.260;6.714;2023-04-03T12:00:59;1.10;;;0.20;;
38312;SDS011;24114;52.260;6.714;2023-04-03T12:06:48;1.75;;;0.73;;
38312;SDS011;24114;52.260;6.714;2023-04-03T12:09:22;2.00;;;0.40;;
38312;SDS011;24114;52.260;6.714;2023-04-03T12:11:51;1.45;;;0.30;;
38312;SDS011;24114;52.260;6.714;2023-04-03T12:14:21;2.13;;;0.30;;
38312;SDS011;24114;52.260;6.714;2023-04-03T12:16:50;1.50;;;0.30;;
38312;SDS011;24114;52.260;6.714;2023-04-03T12:22:15;1.80;;;0.30;;
38312;SDS011;24114;52.260;6.714;2023-04-03T12:24:48;3.50;;;0.40;;
38312;SDS011;24114;52.260;6.714;2023-04-03T12:27:21;1.52;;;0.40;;
38312;SDS011;24114;52.260;6.714;2023-04-03T12:29:53;1.00;;;0.20;;
38312;SDS011;24114;52.260;6.714;2023-04-03T12:32:26;1.63;;;0.23;;
38312;SDS011;24114;52.260;6.714;2023-04-03T12:35:34;1.40;;;0.28;;
38312;SDS011;24114;52.260;6.714;2023-04-03T12:38:20;1.75;;;0.20;;
38312;SDS011;24114;52.260;6.714;2023-04-03T12:41:04;1.77;;;0.40;;
38312;SDS011;24114;52.260;6.714;2023-04-03T12:43:43;1.60;;;0.30;;
38312;SDS011;24114;52.260;6.714;2023-04-03T12:46:22;1.73;;;0.25;;
38312;SDS011;24114;52.260;6.714;2023-04-03T12:49:10;2.30;;;0.30;;
38312;SDS011;24114;52.260;6.714;2023-04-03T12:51:43;2.20;;;0.50;;
38312;SDS011;24114;52.260;6.714;2023-04-03T12:54:14;2.45;;;0.57;;
38312;SDS011;24114;52.260;6.714;2023-04-03T12:56:44;1.95;;;0.20;;
38312;SDS011;24114;52.260;6.714;2023-04-03T12:59:13;1.60;;;0.30;;
38312;SDS011;24114;52.260;6.714;2023-04-03T13:01:43;2.08;;;0.30;;
38312;SDS011;24114;52.260;6.714;2023-04-03T13:04:11;3.53;;;0.20;;
38312;SDS011;24114;52.260;6.714;2023-04-03T13:06:40;1.50;;;0.40;;
38312;SDS011;24114;52.260;6.714;2023-04-03T13:09:19;1.50;;;0.40;;
38312;SDS011;24114;52.260;6.714;2023-04-03T13:11:49;2.53;;;0.50;;
38312;SDS011;24114;52.260;6.714;2023-04-03T13:14:20;2.70;;;0.43;;
38312;SDS011;24114;52.260;6.714;2023-04-03T13:16:55;2.65;;;0.30;;
38312;SDS011;24114;52.260;6.714;2023-04-03T13:19:23;1.90;;;0.40;;
38312;SDS011;24114;52.260;6.714;2023-04-03T13:21:56;1.25;;;0.38;;
38312;SDS011;24114;52.260;6.714;2023-04-03T13:24:29;2.67;;;0.32;;
38312;SDS011;24114;52.260;6.714;2023-04-03T13:26:59;1.20;;;0.30;;
38312;SDS011;24114;52.260;6.714;2023-04-03T13:29:29;1.90;;;0.50;;
38312;SDS011;24114;52.260;6.714;2023-04-03T13:31:59;2.23;;;0.40;;
38312;SDS011;24114;52.260;6.714;2023-04-03T13:34:28;2.53;;;0.50;;
38312;SDS011;24114;52.260;6.714;2023-04-03T13:36:59;2.05;;;0.57;;
38312;SDS011;24114;52.260;6.714;2023-04-03T13:39:31;1.77;;;0.40;;
38312;SDS011;24114;52.260;6.714;2023-04-03T13:42:00;2.35;;;0.43;;
38312;SDS011;24114;52.260;6.714;2023-04-03T13:44:30;2.28;;;0.50;;
38312;SDS011;24114;52.260;6.714;2023-04-03T13:47:14;1.92;;;0.40;;
38312;SDS011;24114;52.260;6.714;2023-04-03T13:49:45;1.85;;;0.35;;
38312;SDS011;24114;52.260;6.714;2023-04-03T13:52:23;2.25;;;0.40;;
38312;SDS011;24114;52.260;6.714;2023-04-03T13:54:59;1.35;;;0.47;;
38312;SDS011;24114;52.260;6.714;2023-04-03T13:57:33;1.27;;;0.30;;
38312;SDS011;24114;52.260;6.714;2023-04-03T14:02:47;1.80;;;0.25;;
38312;SDS011;24114;52.260;6.714;2023-04-03T14:05:15;1.17;;;0.20;;
38312;SDS011;24114;52.260;6.714;2023-04-03T14:07:47;2.58;;;0.30;;
38312;SDS011;24114;52.260;6.714;2023-04-03T14:10:16;1.50;;;0.43;;
38312;SDS011;24114;52.260;6.714;2023-04-03T14:12:44;1.88;;;0.30;;
38312;SDS011;24114;52.260;6.714;2023-04-03T14:15:16;2.30;;;0.60;;
38312;SDS011;24114;52.260;6.714;2023-04-03T14:17:46;3.33;;;0.50;;
38312;SDS011;24114;52.260;6.714;2023-04-03T14:20:14;1.88;;;0.47;;
38312;SDS011;24114;52.260;6.714;2023-04-03T14:22:43;1.55;;;0.38;;
38312;SDS011;24114;52.260;6.714;2023-04-03T14:25:11;1.73;;;0.38;;
38312;SDS011;24114;52.260;6.714;2023-04-03T14:27:41;1.33;;;0.30;;
38312;SDS011;24114;52.260;6.714;2023-04-03T14:30:12;2.38;;;0.40;;
38312;SDS011;24114;52.260;6.714;2023-04-03T14:32:43;2.28;;;0.40;;
38312;SDS011;24114;52.260;6.714;2023-04-03T14:35:11;2.85;;;0.40;;
38312;SDS011;24114;52.260;6.714;2023-04-03T14:37:38;1.15;;;0.30;;
38312;SDS011;24114;52.260;6.714;2023-04-03T14:40:07;1.75;;;0.30;;
38312;SDS011;24114;52.260;6.714;2023-04-03T14:42:36;1.00;;;0.20;;
38312;SDS011;24114;52.260;6.714;2023-04-03T14:45:07;1.23;;;0.20;;
38312;SDS011;24114;52.260;6.714;2023-04-03T14:47:36;2.33;;;0.30;;
38312;SDS011;24114;52.260;6.714;2023-04-03T14:50:11;1.52;;;0.20;;
38312;SDS011;24114;52.260;6.714;2023-04-03T14:52:40;2.28;;;0.50;;
38312;SDS011;24114;52.260;6.714;2023-04-03T14:55:08;1.60;;;0.28;;
38312;SDS011;24114;52.260;6.714;2023-04-03T14:57:46;2.30;;;0.17;;
38312;SDS011;24114;52.260;6.714;2023-04-03T15:00:16;1.83;;;0.17;;
38312;SDS011;24114;52.260;6.714;2023-04-03T15:02:45;1.23;;;0.20;;
38312;SDS011;24114;52.260;6.714;2023-04-03T15:05:14;0.98;;;0.17;;
38312;SDS011;24114;52.260;6.714;2023-04-03T15:07:45;0.90;;;0.10;;
38312;SDS011;24114;52.260;6.714;2023-04-03T15:10:16;1.87;;;0.30;;
38312;SDS011;24114;52.260;6.714;2023-04-03T15:12:45;2.28;;;0.30;;
38312;SDS011;24114;52.260;6.714;2023-04-03T15:15:16;1.38;;;0.40;;
38312;SDS011;24114;52.260;6.714;2023-04-03T15:17:46;1.55;;;0.40;;
38312;SDS011;24114;52.260;6.714;2023-04-03T15:20:15;1.40;;;0.40;;
38312;SDS011;24114;52.260;6.714;2023-04-03T15:22:44;1.80;;;0.20;;
38312;SDS011;24114;52.260;6.714;2023-04-03T15:25:12;2.63;;;0.30;;
38312;SDS011;24114;52.260;6.714;2023-04-03T15:27:40;0.80;;;0.20;;
38312;SDS011;24114;52.260;6.714;2023-04-03T15:30:11;1.95;;;0.10;;